Time;durP1;ratioP1;P1;durP2;ratioP2;P2;SDS_P1;SDS_P2;PMS_P1;PMS_P2;Temp;Humidity;BMP_temperature;BMP_pressure;BME280_temperature;BME280_humidity;BME280_pressure;Samples;Min_cycle;Max_cycle;Signal;HPM_P1;HPM_P2
2021/06/06 00:00:26;;;;;;;8.43;4.63;;;16.70;99.90;;;;;;5052638;28;20029;-84
2021/06/06 00:02:52;;;;;;;8.68;4.78;;;16.60;99.90;;;;;;5035010;28;20033;-84
2021/06/06 00:05:20;;;;;;;7.15;4.20;;;16.60;99.90;;;;;;5065382;28;20107;-84
2021/06/06 00:07:46;;;;;;;8.38;4.88;;;16.60;99.90;;;;;;5073495;28;20106;-84
2021/06/06 00:10:13;;;;;;;6.63;4.07;;;16.60;99.90;;;;;;5071537;28;20029;-83
2021/06/06 00:12:39;;;;;;;8.65;3.92;;;16.60;99.90;;;;;;5071867;28;20037;-84
2021/06/06 00:15:11;;;;;;;6.57;4.18;;;16.60;99.90;;;;;;5034764;28;20044;-83
2021/06/06 00:17:37;;;;;;;6.68;3.83;;;16.50;99.90;;;;;;5035389;28;20112;-83
2021/06/06 00:20:07;;;;;;;6.90;3.83;;;16.40;99.90;;;;;;5052562;28;20064;-84
2021/06/06 00:22:33;;;;;;;7.07;3.95;;;16.30;99.90;;;;;;5039104;28;20472;-83
2021/06/06 00:24:59;;;;;;;9.10;3.40;;;16.30;99.90;;;;;;5072634;28;20074;-84
2021/06/06 00:27:25;;;;;;;6.10;3.63;;;16.40;99.90;;;;;;5064068;28;20036;-83
2021/06/06 00:29:51;;;;;;;7.18;3.63;;;16.40;99.90;;;;;;5054441;28;20515;-83
2021/06/06 00:32:19;;;;;;;7.65;3.95;;;16.40;99.90;;;;;;5071055;28;20138;-84
2021/06/06 00:34:44;;;;;;;7.25;3.63;;;16.40;99.90;;;;;;5056599;28;20037;-83
2021/06/06 00:37:11;;;;;;;5.88;3.22;;;16.40;99.90;;;;;;5074150;28;20021;-84
2021/06/06 00:39:37;;;;;;;8.90;3.58;;;16.40;99.90;;;;;;5074505;28;20021;-83
2021/06/06 00:42:03;;;;;;;7.60;3.70;;;16.40;99.90;;;;;;5093830;22;20102;-84
2021/06/06 00:44:29;;;;;;;7.43;3.95;;;16.30;99.90;;;;;;5075549;28;20020;-84
2021/06/06 00:46:55;;;;;;;6.65;3.53;;;16.30;99.90;;;;;;5076968;28;20075;-84
2021/06/06 00:49:22;;;;;;;6.95;4.05;;;16.30;99.90;;;;;;5074555;28;20028;-84
2021/06/06 00:51:59;;;;;;;7.13;3.45;;;16.40;99.90;;;;;;5076959;28;20028;-84
2021/06/06 00:54:28;;;;;;;6.28;3.53;;;16.20;99.90;;;;;;5076285;28;20028;-84
2021/06/06 00:56:59;;;;;;;7.47;4.13;;;16.20;99.90;;;;;;5084665;28;20396;-84
2021/06/06 00:59:27;;;;;;;8.60;3.97;;;16.20;99.90;;;;;;5083392;28;20118;-84
2021/06/06 01:01:53;;;;;;;6.70;3.72;;;16.20;99.90;;;;;;5074872;28;20067;-84
2021/06/06 01:04:20;;;;;;;7.10;3.58;;;16.20;99.90;;;;;;5076070;28;20029;-84
2021/06/06 01:06:53;;;;;;;8.23;3.90;;;16.20;99.90;;;;;;5075182;28;20515;-84
2021/06/06 01:09:23;;;;;;;7.55;3.60;;;16.10;99.90;;;;;;5058966;28;20046;-84
2021/06/06 01:11:58;;;;;;;7.65;4.45;;;16.20;99.90;;;;;;5076599;28;20055;-85
2021/06/06 01:14:44;;;;;;;6.68;3.60;;;16.10;99.90;;;;;;5076225;28;20017;-85
2021/06/06 01:17:24;;;;;;;6.50;3.78;;;16.10;99.90;;;;;;5074144;28;20025;-84
2021/06/06 01:20:07;;;;;;;7.68;4.05;;;16.10;99.90;;;;;;5058266;28;20032;-84
2021/06/06 01:23:05;;;;;;;7.10;3.55;;;16.10;99.90;;;;;;5073528;28;20012;-83
2021/06/06 01:25:42;;;;;;;6.45;3.50;;;16.00;99.90;;;;;;5059374;28;20048;-84
2021/06/06 01:28:10;;;;;;;7.43;3.80;;;15.90;99.90;;;;;;5059015;28;20028;-84
2021/06/06 01:30:43;;;;;;;7.07;3.95;;;16.00;99.90;;;;;;5081772;28;20032;-84
2021/06/06 01:33:16;;;;;;;6.57;3.38;;;16.10;99.90;;;;;;5082898;28;20043;-84
2021/06/06 01:35:52;;;;;;;6.97;3.58;;;15.90;99.90;;;;;;5098102;28;20119;-84
2021/06/06 01:38:34;;;;;;;5.95;3.42;;;16.00;99.90;;;;;;5103256;28;20008;-84
2021/06/06 01:41:06;;;;;;;7.10;3.80;;;15.90;99.90;;;;;;5081489;28;20016;-83
2021/06/06 01:43:35;;;;;;;6.65;3.83;;;15.80;99.90;;;;;;5078797;28;20028;-85
2021/06/06 01:46:07;;;;;;;7.70;3.92;;;15.80;99.90;;;;;;5078346;28;20046;-84
2021/06/06 01:48:36;;;;;;;6.32;3.75;;;15.90;99.90;;;;;;5097426;28;20426;-84
2021/06/06 01:51:27;;;;;;;6.82;3.78;;;15.90;99.90;;;;;;5080615;28;20028;-84
2021/06/06 01:53:54;;;;;;;6.55;3.78;;;15.90;99.90;;;;;;5061550;28;20036;-84
2021/06/06 01:56:28;;;;;;;7.50;3.55;;;15.90;99.90;;;;;;5075974;28;20025;-85
2021/06/06 01:58:56;;;;;;;7.38;3.80;;;15.90;99.90;;;;;;5076332;28;20409;-85
2021/06/06 02:01:24;;;;;;;9.15;4.25;;;15.90;99.90;;;;;;5074997;28;20154;-84
2021/06/06 02:03:53;;;;;;;6.22;3.42;;;15.90;99.90;;;;;;5075578;28;20036;-85
2021/06/06 02:06:22;;;;;;;6.90;3.72;;;15.90;99.90;;;;;;5073628;28;20507;-85
2021/06/06 02:08:48;;;;;;;7.80;3.67;;;15.90;99.90;;;;;;5057747;28;20078;-84
2021/06/06 02:11:25;;;;;;;6.47;3.47;;;15.80;99.90;;;;;;5057576;28;20029;-84
2021/06/06 02:14:05;;;;;;;6.78;3.45;;;15.90;99.90;;;;;;5057694;28;20055;-84
2021/06/06 02:16:35;;;;;;;8.10;4.15;;;15.90;99.90;;;;;;5075571;28;20028;-85
2021/06/06 02:19:00;;;;;;;6.15;3.58;;;15.80;99.90;;;;;;5076711;28;20047;-85
2021/06/06 02:21:26;;;;;;;6.55;3.22;;;15.90;99.90;;;;;;5076714;28;20029;-84
2021/06/06 02:23:52;;;;;;;7.82;3.85;;;15.90;99.90;;;;;;5073253;28;20021;-85
2021/06/06 02:26:30;;;;;;;6.80;3.72;;;15.90;99.90;;;;;;5075241;28;20396;-84
2021/06/06 02:29:10;;;;;;;6.82;3.70;;;15.90;99.90;;;;;;5076287;28;20020;-84
2021/06/06 02:31:49;;;;;;;6.75;3.15;;;16.00;99.90;;;;;;5071226;28;20028;-85
2021/06/06 02:34:21;;;;;;;7.93;3.72;;;16.00;99.90;;;;;;5083952;28;20055;-84
2021/06/06 02:36:50;;;;;;;;;;;16.10;99.90;;;;;;5078352;28;20104;-85
2021/06/06 02:39:20;;;;;;;5.88;3.28;;;16.00;99.90;;;;;;5079110;28;19908;-85
2021/06/06 02:41:53;;;;;;;6.47;2.92;;;16.10;99.90;;;;;;5075164;28;20028;-85
2021/06/06 02:44:29;;;;;;;5.68;3.20;;;16.10;99.90;;;;;;5074112;28;20471;-85
2021/06/06 02:46:57;;;;;;;6.28;3.25;;;16.00;99.90;;;;;;5075685;28;20030;-85
2021/06/06 02:49:30;;;;;;;5.65;3.15;;;16.00;99.90;;;;;;5075341;28;20383;-84
2021/06/06 02:52:07;;;;;;;6.30;2.97;;;15.90;99.90;;;;;;5071679;28;20120;-84
2021/06/06 02:54:44;;;;;;;5.13;2.65;;;16.00;99.90;;;;;;5074160;28;20033;-85
2021/06/06 02:57:13;;;;;;;5.00;2.80;;;15.90;99.90;;;;;;5055356;28;20051;-85
2021/06/06 02:59:42;;;;;;;5.05;2.80;;;15.90;99.90;;;;;;5055813;28;20120;-85
2021/06/06 03:02:17;;;;;;;5.35;3.20;;;15.90;99.90;;;;;;5074566;28;20021;-85
2021/06/06 03:04:48;;;;;;;6.20;3.15;;;16.00;99.90;;;;;;5074330;28;20031;-85
2021/06/06 03:07:38;;;;;;;5.85;3.13;;;15.90;99.90;;;;;;5073046;28;20016;-85
2021/06/06 03:10:09;;;;;;;6.57;2.78;;;15.90;99.90;;;;;;5055604;28;20036;-85
2021/06/06 03:12:35;;;;;;;6.50;3.38;;;15.80;99.90;;;;;;5074150;28;20044;-85
2021/06/06 03:15:02;;;;;;;5.45;2.72;;;15.80;99.90;;;;;;5074339;28;20082;-85
2021/06/06 03:17:32;;;;;;;5.88;3.25;;;15.80;99.90;;;;;;5073649;28;20481;-85
2021/06/06 03:20:04;;;;;;;7.32;3.22;;;15.70;99.90;;;;;;5056075;28;20023;-84
2021/06/06 03:22:37;;;;;;;6.57;2.90;;;15.70;99.90;;;;;;5074524;28;20020;-84
2021/06/06 03:25:24;;;;;;;5.75;3.05;;;15.70;99.90;;;;;;5056227;28;20091;-85
2021/06/06 03:27:49;;;;;;;6.70;3.30;;;15.70;99.90;;;;;;5074738;28;20349;-85
2021/06/06 03:30:27;;;;;;;7.60;3.25;;;15.60;99.90;;;;;;5076763;28;20037;-84
2021/06/06 03:32:54;;;;;;;5.78;2.83;;;15.60;99.90;;;;;;5076538;28;20031;-85
2021/06/06 03:35:20;;;;;;;6.25;3.00;;;15.70;99.90;;;;;;5073613;28;20502;-84
2021/06/06 03:37:46;;;;;;;5.78;3.05;;;15.60;99.90;;;;;;5075403;28;20029;-85
2021/06/06 03:40:12;;;;;;;5.55;2.83;;;15.60;99.90;;;;;;5074886;28;20392;-84
2021/06/06 03:42:38;;;;;;;6.40;2.45;;;15.60;99.90;;;;;;5071800;28;20032;-84
2021/06/06 03:45:10;;;;;;;7.00;2.70;;;15.50;99.90;;;;;;5055847;28;20029;-85
2021/06/06 03:47:36;;;;;;;6.05;3.00;;;15.60;99.90;;;;;;5056430;28;20464;-85
2021/06/06 03:50:05;;;;;;;6.70;2.97;;;15.60;99.90;;;;;;5075385;28;20055;-84
2021/06/06 03:52:33;;;;;;;6.05;2.75;;;15.60;99.90;;;;;;5074444;28;20119;-84
2021/06/06 03:55:00;;;;;;;8.15;3.08;;;15.60;99.90;;;;;;5073069;28;20028;-85
2021/06/06 03:57:26;;;;;;;7.00;2.92;;;15.60;99.90;;;;;;5073440;28;20074;-85
2021/06/06 03:59:52;;;;;;;9.25;3.25;;;15.60;99.90;;;;;;5074892;28;20071;-85
2021/06/06 04:02:18;;;;;;;8.75;3.95;;;15.40;99.90;;;;;;5074319;28;20431;-84
2021/06/06 04:04:43;;;;;;;8.57;3.95;;;15.40;99.90;;;;;;5080881;28;20036;-85
2021/06/06 04:07:11;;;;;;;8.85;3.83;;;15.40;99.90;;;;;;5089098;28;20032;-85
2021/06/06 04:09:37;;;;;;;9.82;3.72;;;15.40;99.90;;;;;;5081264;28;20211;-85
2021/06/06 04:12:03;;;;;;;8.07;3.50;;;15.40;99.90;;;;;;5082189;28;20032;-85
2021/06/06 04:14:28;;;;;;;9.18;3.70;;;15.40;99.90;;;;;;5081000;28;20118;-84
2021/06/06 04:16:54;;;;;;;12.02;4.47;;;15.40;99.90;;;;;;5074690;28;20523;-84
2021/06/06 04:19:20;;;;;;;8.55;3.45;;;15.40;99.90;;;;;;5061695;28;20028;-84
2021/06/06 04:21:45;;;;;;;10.50;4.32;;;15.40;99.90;;;;;;5081403;28;20027;-85
2021/06/06 04:24:11;;;;;;;9.05;3.60;;;15.30;99.90;;;;;;5081461;28;20468;-84
2021/06/06 04:26:37;;;;;;;9.00;3.80;;;15.30;99.90;;;;;;5066699;28;20040;-85
2021/06/06 04:29:03;;;;;;;9.15;4.10;;;15.40;99.90;;;;;;5085945;28;20035;-85
2021/06/06 04:31:29;;;;;;;10.43;4.03;;;15.30;99.90;;;;;;5088227;28;20028;-85
2021/06/06 04:33:54;;;;;;;11.77;4.20;;;15.30;99.90;;;;;;5089738;28;20050;-84
2021/06/06 04:36:20;;;;;;;11.52;4.57;;;15.30;99.90;;;;;;5082601;28;20033;-85
2021/06/06 04:38:47;;;;;;;9.65;4.30;;;15.30;99.90;;;;;;5084939;28;20467;-85
2021/06/06 04:41:14;;;;;;;13.10;4.57;;;15.30;99.90;;;;;;5098237;28;20016;-85
2021/06/06 04:43:39;;;;;;;9.43;4.22;;;15.30;99.90;;;;;;5078805;28;20388;-85
2021/06/06 04:46:06;;;;;;;8.77;4.22;;;15.30;99.90;;;;;;5059968;28;20029;-84
2021/06/06 04:48:35;;;;;;;13.63;4.60;;;15.30;99.90;;;;;;5078158;28;20025;-85
2021/06/06 04:51:04;;;;;;;11.98;4.90;;;15.50;99.90;;;;;;5077740;28;20036;-84
2021/06/06 04:53:30;;;;;;;13.63;5.47;;;15.30;99.90;;;;;;5076209;28;20108;-85
2021/06/06 04:55:58;;;;;;;12.05;4.68;;;15.20;99.90;;;;;;5058581;28;20061;-85
2021/06/06 04:58:27;;;;;;;13.18;5.35;;;15.20;99.90;;;;;;5077587;28;20023;-85
2021/06/06 05:00:53;;;;;;;12.60;5.13;;;15.20;99.90;;;;;;5087266;28;20021;-85
2021/06/06 05:03:20;;;;;;;14.77;5.32;;;15.20;99.90;;;;;;5075479;28;20028;-85
2021/06/06 05:05:46;;;;;;;14.32;5.80;;;15.10;99.90;;;;;;5058719;28;20108;-85
2021/06/06 05:08:14;;;;;;;10.07;5.47;;;15.20;99.90;;;;;;5076161;28;20032;-85
2021/06/06 05:10:42;;;;;;;11.85;5.05;;;15.20;99.90;;;;;;5071746;28;20025;-84
2021/06/06 05:13:08;;;;;;;13.13;5.95;;;15.20;99.90;;;;;;5078164;28;20024;-85
2021/06/06 05:15:34;;;;;;;15.95;6.15;;;15.20;99.90;;;;;;5095002;28;20023;-86
2021/06/06 05:18:00;;;;;;;12.68;5.85;;;15.20;99.90;;;;;;5072985;28;20036;-85
2021/06/06 05:20:30;;;;;;;13.55;5.53;;;15.20;99.90;;;;;;5056416;28;20020;-85
2021/06/06 05:22:56;;;;;;;13.43;5.88;;;15.20;99.90;;;;;;5074480;28;20111;-85
2021/06/06 05:25:23;;;;;;;12.15;5.72;;;15.20;99.90;;;;;;5076547;28;20447;-85
2021/06/06 05:27:48;;;;;;;11.27;5.47;;;15.30;99.90;;;;;;5076564;28;20024;-85
2021/06/06 05:30:21;;;;;;;10.13;5.32;;;15.20;99.90;;;;;;5058667;28;20392;-85
2021/06/06 05:32:47;;;;;;;13.75;5.95;;;15.20;99.90;;;;;;5075072;28;20036;-85
2021/06/06 05:35:13;;;;;;;13.95;5.57;;;15.20;99.90;;;;;;5075480;28;20024;-85
2021/06/06 05:37:39;;;;;;;12.70;5.90;;;15.20;99.90;;;;;;5057829;28;20054;-85
2021/06/06 05:40:05;;;;;;;11.50;5.28;;;15.30;99.90;;;;;;5074002;28;20028;-85
2021/06/06 05:42:31;;;;;;;12.52;5.40;;;15.30;99.90;;;;;;5075424;28;20028;-86
2021/06/06 05:44:56;;;;;;;11.43;5.32;;;15.40;99.90;;;;;;5075419;28;20060;-85
2021/06/06 05:47:22;;;;;;;12.02;5.63;;;15.30;99.90;;;;;;5075845;28;20020;-85
2021/06/06 05:49:47;;;;;;;12.68;6.15;;;15.30;99.90;;;;;;5059176;28;20028;-85
2021/06/06 05:52:13;;;;;;;11.52;6.30;;;15.40;99.90;;;;;;5079496;28;20043;-85
2021/06/06 05:54:39;;;;;;;11.63;6.30;;;15.40;99.90;;;;;;5077823;28;20029;-86
2021/06/06 05:57:05;;;;;;;14.90;6.85;;;15.40;99.90;;;;;;5076108;28;20093;-84
2021/06/06 05:59:30;;;;;;;12.23;5.88;;;15.30;99.90;;;;;;5074877;28;20162;-85
2021/06/06 06:01:56;;;;;;;13.32;6.47;;;15.30;99.90;;;;;;5072032;28;20082;-85
2021/06/06 06:04:21;;;;;;;13.80;6.60;;;15.20;99.90;;;;;;5056093;28;20031;-85
2021/06/06 06:06:47;;;;;;;14.38;6.18;;;15.10;99.90;;;;;;5057030;28;20079;-85
2021/06/06 06:09:12;;;;;;;12.68;6.03;;;15.30;99.90;;;;;;5071913;28;20120;-85
2021/06/06 06:11:38;;;;;;;12.50;6.20;;;15.30;99.90;;;;;;5074275;28;20070;-86
2021/06/06 06:14:04;;;;;;;12.05;5.95;;;15.30;99.90;;;;;;5090183;28;20519;-85
2021/06/06 06:16:33;;;;;;;9.93;5.78;;;15.20;99.90;;;;;;5075815;28;20510;-85
2021/06/06 06:19:01;;;;;;;11.93;6.43;;;15.40;99.90;;;;;;5075338;28;20024;-85
2021/06/06 06:21:28;;;;;;;10.60;5.22;;;15.30;99.90;;;;;;5073542;28;20048;-85
2021/06/06 06:23:54;;;;;;;13.20;5.13;;;15.30;99.90;;;;;;5073876;28;20036;-85
2021/06/06 06:26:21;;;;;;;14.00;6.05;;;15.30;99.90;;;;;;5071019;28;20036;-86
2021/06/06 06:28:49;;;;;;;10.95;5.72;;;15.20;99.90;;;;;;5072917;28;20056;-85
2021/06/06 06:31:16;;;;;;;10.73;5.50;;;15.20;99.90;;;;;;5074529;28;20051;-85
2021/06/06 06:33:42;;;;;;;10.25;5.05;;;15.20;99.90;;;;;;5090157;28;20088;-85
2021/06/06 06:36:10;;;;;;;8.90;5.45;;;15.20;99.90;;;;;;5090374;28;20035;-86
2021/06/06 06:38:36;;;;;;;8.75;4.47;;;15.20;99.90;;;;;;5073777;28;20094;-85
2021/06/06 06:41:02;;;;;;;11.82;5.22;;;15.20;99.90;;;;;;5091794;28;20012;-86
2021/06/06 06:43:28;;;;;;;8.05;4.63;;;15.20;99.90;;;;;;5089333;28;20020;-86
2021/06/06 06:45:54;;;;;;;9.63;4.82;;;15.30;99.90;;;;;;5074889;28;20069;-85
2021/06/06 06:48:23;;;;;;;8.75;5.13;;;15.40;99.90;;;;;;5109531;22;20032;-84
2021/06/06 06:50:51;;;;;;;10.23;4.40;;;15.30;99.90;;;;;;5061954;28;20032;-84
2021/06/06 06:53:17;;;;;;;8.75;4.60;;;15.30;99.90;;;;;;5070911;28;20008;-85
2021/06/06 06:55:43;;;;;;;8.18;4.35;;;15.20;99.90;;;;;;5069928;28;20029;-84
2021/06/06 06:58:09;;;;;;;8.13;4.28;;;15.30;99.90;;;;;;5070734;28;20063;-84
2021/06/06 07:00:41;;;;;;;6.72;4.35;;;15.30;99.90;;;;;;5070931;28;20421;-84
2021/06/06 07:03:09;;;;;;;9.57;4.68;;;15.40;99.90;;;;;;5071291;28;20046;-85
2021/06/06 07:05:35;;;;;;;8.38;4.28;;;15.30;99.90;;;;;;5065698;28;20032;-84
2021/06/06 07:08:00;;;;;;;8.80;4.80;;;15.40;99.90;;;;;;5069813;28;20032;-84
2021/06/06 07:10:29;;;;;;;10.48;4.65;;;15.40;99.90;;;;;;5069463;28;20417;-84
2021/06/06 07:12:55;;;;;;;7.65;4.55;;;15.40;99.90;;;;;;5071023;28;20434;-84
2021/06/06 07:15:21;;;;;;;8.45;4.93;;;15.30;99.90;;;;;;5069992;28;20028;-84
2021/06/06 07:17:46;;;;;;;9.30;4.88;;;15.30;99.90;;;;;;5070993;28;20021;-85
2021/06/06 07:20:17;;;;;;;9.35;5.00;;;15.40;99.90;;;;;;5070807;28;20437;-85
2021/06/06 07:22:42;;;;;;;9.50;4.57;;;15.40;99.90;;;;;;5070273;28;20024;-84
2021/06/06 07:25:10;;;;;;;7.90;5.00;;;15.40;99.90;;;;;;5072438;28;20377;-85
2021/06/06 07:27:43;;;;;;;9.82;5.20;;;15.50;99.90;;;;;;5077529;28;20043;-85
2021/06/06 07:30:16;;;;;;;9.70;4.78;;;15.50;99.90;;;;;;5080921;28;20029;-85
2021/06/06 07:32:42;;;;;;;8.95;4.68;;;15.60;99.90;;;;;;5065170;28;20027;-84
2021/06/06 07:35:09;;;;;;;9.50;4.55;;;15.60;99.90;;;;;;5069189;28;20033;-85
2021/06/06 07:37:35;;;;;;;9.55;5.40;;;15.50;99.90;;;;;;5069883;28;20035;-85
2021/06/06 07:40:01;;;;;;;11.90;5.07;;;15.60;99.90;;;;;;5051502;28;20034;-84
2021/06/06 07:42:26;;;;;;;8.55;4.70;;;15.60;99.90;;;;;;5072004;28;20016;-84
2021/06/06 07:44:52;;;;;;;10.48;5.10;;;15.60;99.90;;;;;;5068374;28;20163;-84
2021/06/06 07:47:18;;;;;;;10.73;5.32;;;15.70;99.90;;;;;;5071254;28;20029;-84
2021/06/06 07:49:44;;;;;;;10.00;4.80;;;15.60;99.90;;;;;;5074428;28;20033;-85
2021/06/06 07:52:10;;;;;;;11.48;5.25;;;15.60;99.90;;;;;;5074534;28;20032;-85
2021/06/06 07:54:36;;;;;;;9.10;5.00;;;15.60;99.90;;;;;;5074703;28;20039;-84
2021/06/06 07:57:03;;;;;;;11.38;5.30;;;15.60;99.90;;;;;;5074083;28;20078;-83
2021/06/06 07:59:29;;;;;;;12.23;5.35;;;15.60;99.90;;;;;;5075263;28;20021;-85
2021/06/06 08:01:55;;;;;;;12.77;6.18;;;15.50;99.90;;;;;;5076911;28;20108;-84
2021/06/06 08:04:22;;;;;;;11.38;5.82;;;15.50;99.90;;;;;;5071553;28;20115;-84
2021/06/06 08:06:47;;;;;;;13.65;6.57;;;15.50;99.90;;;;;;5059692;28;20028;-84
2021/06/06 08:09:14;;;;;;;17.05;6.28;;;15.50;99.90;;;;;;5075275;28;20036;-84
2021/06/06 08:11:41;;;;;;;15.95;7.10;;;15.40;99.90;;;;;;5057976;28;20039;-84
2021/06/06 08:14:07;;;;;;;12.07;5.70;;;15.50;99.90;;;;;;5074217;28;20502;-84
2021/06/06 08:16:35;;;;;;;12.05;5.88;;;15.60;99.90;;;;;;5075458;28;20028;-84
2021/06/06 08:19:01;;;;;;;12.45;5.75;;;15.50;99.90;;;;;;5073752;28;20054;-84
2021/06/06 08:21:33;;;;;;;12.35;6.20;;;15.60;99.90;;;;;;5072170;28;20024;-84
2021/06/06 08:23:59;;;;;;;13.13;6.10;;;15.60;99.90;;;;;;5072808;28;20024;-84
2021/06/06 08:26:25;;;;;;;14.10;6.63;;;15.60;99.90;;;;;;5073719;28;20032;-84
2021/06/06 08:28:52;;;;;;;12.30;6.75;;;15.50;99.90;;;;;;5074969;28;20111;-84
2021/06/06 08:31:21;;;;;;;11.73;6.03;;;15.50;99.90;;;;;;5073464;28;20025;-83
2021/06/06 08:33:47;;;;;;;13.60;6.97;;;15.50;99.90;;;;;;5075864;28;20039;-84
2021/06/06 08:36:37;;;;;;;11.07;5.80;;;15.50;99.90;;;;;;5090500;28;20021;-84
2021/06/06 08:39:09;;;;;;;15.40;7.00;;;15.50;99.90;;;;;;5076981;28;20021;-83
2021/06/06 08:41:50;;;;;;;13.68;6.78;;;15.70;99.90;;;;;;5076317;28;20032;-83
2021/06/06 08:44:16;;;;;;;13.10;6.35;;;15.70;99.90;;;;;;5075259;28;20032;-83
2021/06/06 08:47:00;;;;;;;13.15;6.20;;;15.70;99.90;;;;;;5082932;28;20051;-84
2021/06/06 08:49:29;;;;;;;12.85;6.43;;;15.70;99.90;;;;;;5073407;28;20489;-84
2021/06/06 08:52:36;;;;;;;13.27;6.68;;;15.70;99.90;;;;;;5090034;28;20120;-84
2021/06/06 08:55:10;;;;;;;13.40;6.15;;;15.80;99.90;;;;;;5071205;28;20054;-84
2021/06/06 08:57:47;;;;;;;12.27;6.25;;;15.70;99.90;;;;;;5063314;28;20073;-84
2021/06/06 09:00:21;;;;;;;13.52;6.20;;;15.80;99.90;;;;;;5072912;28;20021;-84
2021/06/06 09:02:50;;;;;;;11.23;6.28;;;15.90;99.90;;;;;;5075447;28;20430;-84
2021/06/06 09:05:29;;;;;;;12.32;6.15;;;15.80;99.90;;;;;;5073129;28;20085;-84
2021/06/06 09:07:58;;;;;;;13.75;6.97;;;16.00;99.90;;;;;;5069152;28;20028;-84
2021/06/06 09:10:28;;;;;;;12.88;7.35;;;16.00;99.90;;;;;;5071314;28;20170;-84
2021/06/06 09:12:56;;;;;;;14.85;7.50;;;16.00;99.90;;;;;;5058864;28;20067;-84
2021/06/06 09:15:26;;;;;;;12.68;6.90;;;16.00;99.90;;;;;;5057376;28;20043;-84
2021/06/06 09:17:57;;;;;;;15.60;6.90;;;16.00;99.90;;;;;;5036486;28;20397;-84
2021/06/06 09:20:42;;;;;;;14.00;6.68;;;16.00;99.90;;;;;;5057208;28;20641;-84
2021/06/06 09:23:19;;;;;;;12.73;6.22;;;16.00;99.90;;;;;;5059364;28;20032;-82
2021/06/06 09:25:59;;;;;;;10.68;5.53;;;16.00;99.90;;;;;;5056181;28;20039;-81
2021/06/06 09:28:29;;;;;;;12.20;5.60;;;16.00;99.90;;;;;;5052352;28;20543;-84
2021/06/06 09:31:20;;;;;;;12.38;6.93;;;15.90;99.90;;;;;;5062772;28;20066;-84
2021/06/06 09:33:48;;;;;;;14.95;7.47;;;15.90;99.90;;;;;;5062867;28;20024;-84
2021/06/06 09:36:24;;;;;;;16.13;7.43;;;15.90;99.90;;;;;;5064763;28;20119;-85
2021/06/06 09:38:55;;;;;;;13.65;7.40;;;16.00;99.90;;;;;;5067576;28;20552;-84
2021/06/06 09:41:32;;;;;;;15.27;7.85;;;16.10;99.90;;;;;;5050703;28;20403;-84
2021/06/06 09:44:03;;;;;;;20.15;8.45;;;16.20;99.90;;;;;;5055818;28;20020;-84
2021/06/06 09:47:18;;;;;;;14.90;7.88;;;16.20;99.90;;;;;;5055656;28;20025;-84
2021/06/06 09:49:46;;;;;;;16.02;8.23;;;16.30;99.90;;;;;;5009811;28;20048;-84
2021/06/06 09:52:19;;;;;;;17.45;8.52;;;16.20;99.90;;;;;;5014243;28;20030;-82
2021/06/06 09:54:46;;;;;;;17.88;8.60;;;16.20;99.90;;;;;;5049286;28;20583;-82
2021/06/06 09:57:30;;;;;;;15.07;7.20;;;16.30;99.90;;;;;;5065887;28;20033;-82
2021/06/06 10:00:13;;;;;;;15.82;8.85;;;16.30;99.90;;;;;;5050107;28;20036;-82
2021/06/06 10:02:43;;;;;;;15.02;8.80;;;16.30;99.90;;;;;;5053564;28;20523;-82
2021/06/06 10:05:22;;;;;;;14.18;7.85;;;16.20;99.90;;;;;;5059229;28;20041;-82
2021/06/06 10:08:20;;;;;;;16.52;8.80;;;16.20;99.90;;;;;;5068735;28;20063;-82
2021/06/06 10:10:50;;;;;;;17.58;9.15;;;16.30;99.90;;;;;;5043036;28;20090;-82
2021/06/06 10:13:24;;;;;;;18.33;10.48;;;16.40;99.90;;;;;;5054623;28;20772;-82
2021/06/06 10:16:09;;;;;;;17.63;10.07;;;16.40;99.90;;;;;;5076177;28;20142;-82
2021/06/06 10:18:54;;;;;;;18.40;10.48;;;16.60;99.90;;;;;;5057536;28;20056;-82
2021/06/06 10:21:24;;;;;;;19.38;10.07;;;16.60;99.90;;;;;;5047066;28;20036;-82
2021/06/06 10:23:52;;;;;;;18.30;10.32;;;16.70;99.90;;;;;;5063799;28;20048;-83
2021/06/06 10:26:45;;;;;;;19.50;10.48;;;16.70;99.90;;;;;;5060463;28;20047;-83
2021/06/06 10:29:11;;;;;;;18.73;10.35;;;16.70;99.90;;;;;;5062885;28;20037;-83
2021/06/06 10:31:40;;;;;;;21.63;11.50;;;16.60;99.90;;;;;;5063270;28;20055;-83
2021/06/06 10:34:12;;;;;;;20.70;11.50;;;16.60;99.90;;;;;;5071040;28;20024;-82
2021/06/06 10:36:38;;;;;;;22.50;12.25;;;16.50;99.90;;;;;;5061330;28;20021;-82
2021/06/06 10:39:08;;;;;;;21.02;11.65;;;16.40;99.90;;;;;;5071177;28;20637;-83
2021/06/06 10:41:50;;;;;;;21.15;11.82;;;16.40;99.90;;;;;;5060166;28;20094;-82
2021/06/06 10:44:36;;;;;;;19.38;11.27;;;16.40;99.90;;;;;;5068471;28;20013;-82
2021/06/06 10:47:15;;;;;;;22.88;12.35;;;16.30;99.90;;;;;;5073646;28;20025;-83
2021/06/06 10:49:54;;;;;;;21.55;12.23;;;16.30;99.90;;;;;;5049844;28;20044;-82
2021/06/06 10:52:32;;;;;;;24.00;13.75;;;16.30;99.90;;;;;;5065036;28;20477;-82
2021/06/06 10:55:13;;;;;;;26.15;14.00;;;16.20;99.90;;;;;;5066521;28;20037;-82
2021/06/06 10:57:39;;;;;;;24.60;13.82;;;16.30;99.90;;;;;;5067896;28;20079;-82
2021/06/06 11:00:20;;;;;;;27.17;15.18;;;16.40;99.90;;;;;;5070132;28;20028;-81
2021/06/06 11:02:59;;;;;;;24.75;13.52;;;16.40;99.90;;;;;;5060176;28;20028;-82
2021/06/06 11:05:34;;;;;;;24.25;14.57;;;16.40;99.90;;;;;;5066155;28;20133;-82
2021/06/06 11:08:00;;;;;;;24.40;14.48;;;16.40;99.90;;;;;;5073391;28;20104;-82
2021/06/06 11:10:25;;;;;;;25.73;14.43;;;16.50;99.90;;;;;;5073669;28;20074;-82
2021/06/06 11:12:55;;;;;;;28.33;14.35;;;16.50;99.90;;;;;;5068000;28;20107;-81
2021/06/06 11:15:38;;;;;;;23.17;13.82;;;16.60;99.90;;;;;;5054443;28;20028;-82
2021/06/06 11:18:16;;;;;;;25.77;14.23;;;16.60;99.90;;;;;;5069420;28;20149;-83
2021/06/06 11:21:03;;;;;;;26.70;14.77;;;16.60;99.90;;;;;;5076113;28;20077;-83
2021/06/06 11:23:47;;;;;;;30.58;16.00;;;16.60;99.90;;;;;;5037721;28;20054;-83
2021/06/06 11:26:21;;;;;;;30.92;15.57;;;16.50;99.90;;;;;;5072963;28;20503;-83
2021/06/06 11:28:49;;;;;;;33.55;17.08;;;16.40;99.90;;;;;;5055008;28;20366;-84
2021/06/06 11:31:34;;;;;;;30.88;16.63;;;16.40;99.90;;;;;;5072181;28;20033;-84
2021/06/06 11:34:20;;;;;;;32.97;18.23;;;16.40;99.90;;;;;;5052956;28;20040;-84
2021/06/06 11:36:46;;;;;;;34.30;17.20;;;16.30;99.90;;;;;;5053088;28;20032;-83
2021/06/06 11:39:33;;;;;;;31.67;17.77;;;16.20;99.90;;;;;;5071256;28;20036;-83
2021/06/06 11:42:00;;;;;;;38.85;18.60;;;16.20;99.90;;;;;;5054960;28;20054;-84
2021/06/06 11:44:37;;;;;;;42.15;19.90;;;16.30;99.90;;;;;;5055556;28;20426;-83
2021/06/06 11:47:09;;;;;;;36.75;20.08;;;16.20;99.90;;;;;;5049722;28;20123;-83
2021/06/06 11:49:56;;;;;;;37.67;19.38;;;16.20;99.90;;;;;;5057890;28;20040;-83
2021/06/06 11:52:51;;;;;;;40.38;20.80;;;16.20;99.90;;;;;;5051463;28;20059;-83
2021/06/06 11:55:32;;;;;;;41.13;21.05;;;16.20;99.90;;;;;;5070016;28;20044;-84
2021/06/06 11:58:15;;;;;;;38.17;20.75;;;16.40;99.90;;;;;;5056541;28;20086;-84
2021/06/06 12:00:45;;;;;;;41.25;20.73;;;16.50;99.90;;;;;;5070381;28;20539;-84
2021/06/06 12:03:17;;;;;;;39.42;19.80;;;16.60;99.90;;;;;;5055844;28;20021;-84
2021/06/06 12:05:56;;;;;;;38.83;20.48;;;16.60;99.90;;;;;;5062887;28;20028;-82
2021/06/06 12:08:52;;;;;;;41.42;20.98;;;16.60;99.90;;;;;;5069914;28;20535;-82
2021/06/06 12:11:31;;;;;;;39.95;20.52;;;16.70;99.90;;;;;;5044410;28;20527;-81
2021/06/06 12:14:35;;;;;;;34.28;19.75;;;16.80;99.90;;;;;;5051265;28;20115;-84
2021/06/06 12:17:16;;;;;;;36.38;18.52;;;16.80;99.90;;;;;;5029183;28;20034;-84
2021/06/06 12:19:43;;;;;;;36.92;18.75;;;17.00;99.90;;;;;;5012227;28;20099;-84
2021/06/06 12:22:14;;;;;;;36.35;18.83;;;17.00;99.90;;;;;;5036262;28;20040;-84
2021/06/06 12:24:39;;;;;;;32.72;17.80;;;16.80;99.90;;;;;;5072103;28;20107;-84
2021/06/06 12:27:18;;;;;;;33.85;17.50;;;16.90;99.90;;;;;;5074293;28;20059;-84
2021/06/06 12:29:57;;;;;;;31.65;17.33;;;17.00;99.90;;;;;;5075852;28;20027;-84
2021/06/06 12:32:49;;;;;;;30.52;16.25;;;17.10;99.90;;;;;;5069792;28;20054;-84
2021/06/06 12:35:18;;;;;;;30.27;16.50;;;17.10;99.90;;;;;;5058246;28;20099;-84
2021/06/06 12:37:48;;;;;;;31.08;16.77;;;17.20;99.90;;;;;;5060547;28;20027;-85
2021/06/06 12:40:17;;;;;;;28.98;16.42;;;17.30;99.90;;;;;;5073451;28;20059;-85
2021/06/06 12:42:44;;;;;;;26.48;15.55;;;17.40;99.90;;;;;;5056828;28;20054;-85
2021/06/06 12:45:14;;;;;;;29.17;15.80;;;17.50;99.90;;;;;;5072771;28;20025;-85
2021/06/06 12:47:43;;;;;;;30.83;15.98;;;17.60;99.90;;;;;;5052792;28;20134;-85
2021/06/06 12:50:11;;;;;;;27.60;15.77;;;17.70;99.90;;;;;;5056002;28;20083;-86
2021/06/06 12:52:50;;;;;;;28.35;15.82;;;17.80;99.90;;;;;;5072196;28;20424;-85
2021/06/06 12:55:28;;;;;;;26.90;15.02;;;17.80;99.90;;;;;;5054698;28;20377;-85
2021/06/06 12:58:15;;;;;;;27.63;14.88;;;17.80;99.90;;;;;;5071195;28;20100;-85